Time;durP1;ratioP1;P1;durP2;ratioP2;P2;SDS_P1;SDS_P2;PMS_P1;PMS_P2;Temp;Humidity;BMP_temperature;BMP_pressure;BME280_temperature;BME280_humidity;BME280_pressure;Samples;Min_cycle;Max_cycle;Signal;HPM_P1;HPM_P2
2022/10/03 00:01:16;;;;;;;1.30;1.20;;;;;;;10.56;100.00;101135.66;5038594;28;20471;-55
2022/10/03 00:04:14;;;;;;;1.30;1.20;;;;;;;10.57;100.00;101133.88;5024666;28;21000;-56
2022/10/03 00:06:46;;;;;;;2.33;1.33;;;;;;;10.65;100.00;101137.28;5028581;28;20462;-56
2022/10/03 00:09:34;;;;;;;1.47;1.37;;;;;;;10.55;100.00;101149.88;5028120;28;20545;-56
2022/10/03 00:12:15;;;;;;;6.13;0.97;;;;;;;10.66;100.00;101149.69;5027597;28;20805;-56
2022/10/03 00:15:08;;;;;;;1.20;1.10;;;;;;;10.63;100.00;101139.09;5036609;28;20466;-56
2022/10/03 00:17:56;;;;;;;0.73;0.73;;;;;;;10.59;100.00;101143.59;5035943;28;20497;-56
2022/10/03 00:21:01;;;;;;;1.60;1.50;;;;;;;10.64;100.00;101138.19;5039178;28;20451;-56
2022/10/03 00:24:00;;;;;;;2.70;1.57;;;;;;;10.60;100.00;101139.16;5027889;28;20549;-56
2022/10/03 00:26:48;;;;;;;1.60;1.50;;;;;;;10.79;100.00;101126.44;5024761;28;20447;-56
2022/10/03 00:29:14;;;;;;;1.20;1.10;;;;;;;10.70;100.00;101131.91;5036226;28;20544;-56
2022/10/03 00:31:56;;;;;;;1.77;1.67;;;;;;;10.62;100.00;101137.34;5039245;28;20460;-55
2022/10/03 00:34:44;;;;;;;1.00;0.73;;;;;;;10.70;100.00;101153.19;5046561;28;20846;-55
2022/10/03 00:37:32;;;;;;;1.17;1.07;;;;;;;10.73;100.00;101162.00;5035981;28;21003;-56
2022/10/03 00:40:49;;;;;;;0.67;0.60;;;;;;;10.76;100.00;101159.28;5037725;28;20965;-56
2022/10/03 00:43:42;;;;;;;1.07;1.00;;;;;;;10.71;100.00;101158.47;5034170;28;20509;-56
2022/10/03 00:46:53;;;;;;;1.37;1.27;;;;;;;10.74;100.00;101173.50;5018892;28;20471;-56
2022/10/03 00:49:22;;;;;;;1.40;1.30;;;;;;;10.71;100.00;101174.44;5025481;28;20497;-56
2022/10/03 00:52:13;;;;;;;1.63;1.53;;;;;;;10.56;100.00;101169.34;5043234;28;20463;-56
2022/10/03 00:54:57;;;;;;;1.33;1.17;;;;;;;10.77;100.00;101182.31;5036660;28;20895;-56
2022/10/03 00:58:08;;;;;;;1.70;1.30;;;;;;;10.66;100.00;101182.47;5034899;28;20511;-56
2022/10/03 01:00:34;;;;;;;29.90;2.10;;;;;;;10.80;100.00;101186.69;5041544;28;20929;-55
2022/10/03 01:03:32;;;;;;;3.60;2.53;;;;;;;10.50;100.00;101185.38;5042203;28;20508;-56
2022/10/03 01:06:32;;;;;;;0.93;0.93;;;;;;;10.63;100.00;101184.28;5033073;28;20450;-56
2022/10/03 01:09:15;;;;;;;1.53;1.43;;;;;;;10.64;100.00;101189.59;5033399;28;20935;-56
2022/10/03 01:12:03;;;;;;;7.57;3.80;;;;;;;10.79;100.00;101204.44;5035347;28;20454;-55
2022/10/03 01:14:48;;;;;;;1.63;1.47;;;;;;;10.82;100.00;101195.53;5034963;28;20943;-56
2022/10/03 01:17:47;;;;;;;3.07;1.93;;;;;;;10.66;100.00;101197.53;5037631;28;20853;-56
2022/10/03 01:20:26;;;;;;;1.77;1.67;;;;;;;10.61;100.00;101197.59;5021685;28;20537;-56
2022/10/03 01:23:13;;;;;;;2.17;1.97;;;;;;;10.51;100.00;101203.06;5034381;28;20524;-56
2022/10/03 01:26:25;;;;;;;2.67;1.50;;;;;;;10.33;100.00;101204.19;5035699;28;21030;-56
2022/10/03 01:32:29;;;;;;;2.70;2.50;;;;;;;10.30;100.00;101215.75;5025229;28;20501;-56
2022/10/03 01:35:18;;;;;;;1.87;1.77;;;;;;;10.33;100.00;101210.41;5032807;28;20478;-56
2022/10/03 01:38:05;;;;;;;1.93;1.57;;;;;;;10.12;100.00;101194.66;5035038;28;20968;-56
2022/10/03 01:40:53;;;;;;;1.77;1.67;;;;;;;10.08;100.00;101204.47;5035611;28;20452;-56
2022/10/03 01:43:35;;;;;;;1.17;1.07;;;;;;;9.97;100.00;101221.41;5036496;28;20482;-56
2022/10/03 01:46:15;;;;;;;0.67;0.67;;;;;;;10.02;100.00;101217.81;5025268;28;20450;-56
2022/10/03 01:48:47;;;;;;;1.37;1.23;;;;;;;9.74;100.00;101222.56;5045312;28;20860;-56
2022/10/03 01:51:23;;;;;;;4.80;2.97;;;;;;;9.79;100.00;101220.72;5039354;28;20451;-56
2022/10/03 01:53:56;;;;;;;1.37;1.00;;;;;;;9.91;100.00;101218.84;5040652;28;20479;-56
2022/10/03 01:57:05;;;;;;;2.03;1.33;;;;;;;9.97;100.00;101216.97;5041879;28;20462;-56
2022/10/03 01:59:54;;;;;;;1.13;1.03;;;;;;;9.92;100.00;101221.47;4988626;28;21027;-55
2022/10/03 02:02:45;;;;;;;8.17;1.20;;;;;;;9.84;100.00;101225.97;5028322;28;21005;-56
2022/10/03 02:05:38;;;;;;;1.33;1.00;;;;;;;9.80;100.00;101221.59;5041734;28;20925;-56
2022/10/03 02:08:20;;;;;;;1.43;1.33;;;;;;;9.85;100.00;101214.44;5041579;28;20884;-56
2022/10/03 02:10:53;;;;;;;2.73;1.20;;;;;;;9.96;100.00;101217.00;5040545;28;20524;-56
2022/10/03 02:13:46;;;;;;;1.20;1.00;;;;;;;9.96;100.00;101220.53;5034481;28;20500;-56
2022/10/03 02:16:51;;;;;;;1.30;1.20;;;;;;;9.89;100.00;101210.91;5034387;28;20451;-56
2022/10/03 02:19:25;;;;;;;1.00;0.80;;;;;;;9.93;100.00;101220.56;5021665;28;20463;-56
2022/10/03 02:21:54;;;;;;;1.80;1.70;;;;;;;9.95;100.00;101212.59;5039103;28;20456;-56
2022/10/03 02:24:36;;;;;;;1.53;1.53;;;;;;;9.86;100.00;101196.75;5041043;28;20798;-56
2022/10/03 02:27:50;;;;;;;1.07;0.93;;;;;;;9.88;100.00;101205.59;5040268;28;20454;-55
2022/10/03 02:30:40;;;;;;;5.83;2.27;;;;;;;9.53;100.00;101203.28;5032055;28;20869;-56
2022/10/03 02:33:37;;;;;;;2.10;1.47;;;;;;;9.47;100.00;101204.25;5035339;28;20460;-56
2022/10/03 02:36:25;;;;;;;1.50;1.40;;;;;;;9.22;100.00;101197.41;5035954;28;21009;-55
2022/10/03 02:39:29;;;;;;;1.87;1.77;;;;;;;9.27;100.00;101192.91;5045006;28;20451;-56
2022/10/03 02:42:28;;;;;;;1.13;0.90;;;;;;;9.33;100.00;101207.03;5037287;28;20525;-56
2022/10/03 02:45:32;;;;;;;1.57;1.47;;;;;;;9.24;100.00;101207.09;5039049;28;20475;-56
2022/10/03 02:48:31;;;;;;;1.33;1.23;;;;;;;9.08;100.00;101206.34;5026949;28;20454;-55
2022/10/03 02:51:25;;;;;;;1.33;0.97;;;;;;;9.16;100.00;101208.91;5025596;28;20490;-55
2022/10/03 02:54:19;;;;;;;3.60;0.90;;;;;;;9.16;100.00;101207.13;5043617;28;20629;-55
2022/10/03 02:57:16;;;;;;;1.17;1.07;;;;;;;9.19;100.00;101216.88;5034867;28;20553;-55
2022/10/03 03:00:07;;;;;;;0.50;0.50;;;;;;;9.16;100.00;101211.56;5038084;28;20448;-55
2022/10/03 03:02:56;;;;;;;0.93;0.93;;;;;;;9.26;100.00;101218.56;5046246;28;20455;-55
2022/10/03 03:06:03;;;;;;;0.90;0.90;;;;;;;9.23;100.00;101229.22;5044967;28;20479;-55
2022/10/03 03:08:42;;;;;;;2.87;1.67;;;;;;;8.97;100.00;101229.41;5044853;28;21011;-55
2022/10/03 03:11:24;;;;;;;1.00;0.97;;;;;;;9.00;100.00;101234.66;5044495;28;20487;-55
2022/10/03 03:14:09;;;;;;;3.00;1.33;;;;;;;8.74;100.00;101236.59;5041122;28;20466;-55
2022/10/03 03:17:14;;;;;;;3.83;2.67;;;;;;;8.70;100.00;101234.88;5037779;28;20451;-56
2022/10/03 03:19:59;;;;;;;0.87;0.87;;;;;;;8.61;100.00;101244.63;5003330;28;20443;-56
2022/10/03 03:22:33;;;;;;;1.17;1.07;;;;;;;8.61;100.00;101249.03;5044620;28;20956;-56
2022/10/03 03:25:25;;;;;;;0.70;0.60;;;;;;;8.49;100.00;101252.63;5027205;28;20946;-55
2022/10/03 03:27:51;;;;;;;1.50;1.03;;;;;;;8.44;100.00;101256.19;5037816;28;20866;-55
2022/10/03 03:30:22;;;;;;;17.43;1.70;;;;;;;8.36;100.00;101250.03;5039833;28;20579;-55
2022/10/03 03:32:55;;;;;;;2.00;0.73;;;;;;;8.36;100.00;101250.03;5039050;28;20439;-55
2022/10/03 03:35:31;;;;;;;1.67;0.80;;;;;;;8.35;100.00;101253.56;5038038;28;20550;-55
2022/10/03 03:38:03;;;;;;;1.10;0.77;;;;;;;8.20;100.00;101260.66;5026190;28;20447;-55
2022/10/03 03:40:58;;;;;;;1.03;1.03;;;;;;;8.19;100.00;101252.72;5037079;28;20870;-55
2022/10/03 03:43:43;;;;;;;0.63;0.60;;;;;;;8.13;100.00;101261.56;5049068;28;20455;-56
2022/10/03 03:46:31;;;;;;;1.20;1.10;;;;;;;8.07;100.00;101266.00;5029325;28;20442;-55
2022/10/03 03:49:18;;;;;;;0.67;0.50;;;;;;;8.03;100.00;101266.00;5045454;28;20459;-55
2022/10/03 03:52:08;;;;;;;0.50;0.50;;;;;;;8.20;100.00;101263.31;5044250;28;20455;-55
2022/10/03 03:54:56;;;;;;;0.70;0.50;;;;;;;7.99;100.00;101271.31;5034408;28;20543;-55
2022/10/03 03:57:31;;;;;;;4.70;2.70;;;;;;;8.12;100.00;101275.72;5027752;28;20816;-55
2022/10/03 04:00:22;;;;;;;1.77;1.47;;;;;;;8.00;100.00;101281.03;5037611;28;20474;-55
2022/10/03 04:02:57;;;;;;;0.93;0.93;;;;;;;7.86;100.00;101281.06;5038782;28;20452;-56
2022/10/03 04:05:31;;;;;;;1.10;0.90;;;;;;;8.00;100.00;101284.56;5031434;28;20528;-55
2022/10/03 04:08:24;;;;;;;2.37;0.80;;;;;;;8.12;100.00;101285.41;5036783;28;20505;-55
2022/10/03 04:11:12;;;;;;;1.33;0.70;;;;;;;8.28;100.00;101284.47;5038591;28;20521;-55
2022/10/03 04:13:53;;;;;;;9.60;1.40;;;;;;;8.14;100.00;101287.16;5027368;28;20470;-55
2022/10/03 04:19:39;;;;;;;1.60;1.00;;;;;;;8.02;100.00;101287.19;5037145;28;20519;-56
2022/10/03 04:22:49;;;;;;;0.50;0.47;;;;;;;8.19;100.00;101279.19;5032988;28;20920;-56
2022/10/03 04:25:45;;;;;;;1.30;1.20;;;;;;;8.28;100.00;101271.25;5025983;28;20494;-55
2022/10/03 04:28:33;;;;;;;1.47;1.37;;;;;;;8.31;100.00;101274.75;5027151;28;20455;-55
2022/10/03 04:31:37;;;;;;;1.30;0.73;;;;;;;8.38;100.00;101280.97;5035882;28;20490;-55
2022/10/03 04:34:43;;;;;;;1.27;1.27;;;;;;;8.41;100.00;101274.75;5036827;28;20909;-56
2022/10/03 04:37:47;;;;;;;1.00;0.70;;;;;;;8.40;100.00;101279.19;5010162;28;20455;-56
2022/10/03 04:40:41;;;;;;;1.60;1.50;;;;;;;8.33;100.00;101288.00;5043762;28;20455;-55
2022/10/03 04:43:27;;;;;;;4.27;1.30;;;;;;;8.30;100.00;101294.19;5035942;28;20455;-55
2022/10/03 04:46:12;;;;;;;1.43;1.33;;;;;;;8.24;100.00;101288.91;5024278;28;20447;-56
2022/10/03 04:48:46;;;;;;;0.67;0.67;;;;;;;8.20;100.00;101291.56;5037044;28;20546;-55
2022/10/03 04:51:47;;;;;;;1.03;0.97;;;;;;;8.24;100.00;101296.88;5031705;28;20490;-55
2022/10/03 04:54:31;;;;;;;2.00;1.37;;;;;;;8.16;100.00;101295.09;5029822;28;20488;-55
2022/10/03 04:57:06;;;;;;;0.70;0.60;;;;;;;8.19;100.00;101303.03;5031422;28;20470;-55
2022/10/03 04:59:45;;;;;;;0.70;0.70;;;;;;;8.14;100.00;101305.72;5042949;28;20450;-55
2022/10/03 05:02:34;;;;;;;1.50;1.40;;;;;;;8.23;100.00;101302.16;5046915;28;20828;-55
2022/10/03 05:05:22;;;;;;;2.90;2.30;;;;;;;8.52;100.00;101312.69;5040525;28;20475;-55
2022/10/03 05:08:04;;;;;;;1.03;0.93;;;;;;;8.60;100.00;101313.53;5043195;28;20447;-55
2022/10/03 05:10:47;;;;;;;0.50;0.43;;;;;;;8.63;100.00;101307.34;5039116;28;20486;-55
2022/10/03 05:13:17;;;;;;;7.40;1.30;;;;;;;8.65;100.00;101303.81;5034048;28;20455;-55
2022/10/03 05:15:51;;;;;;;0.90;0.80;;;;;;;8.72;100.00;101304.66;5041452;28;20459;-55
2022/10/03 05:18:28;;;;;;;1.27;1.10;;;;;;;8.66;100.00;101307.34;5035887;28;20512;-55
2022/10/03 05:21:05;;;;;;;2.20;1.13;;;;;;;8.69;100.00;101315.28;5035840;28;20501;-55
2022/10/03 05:23:54;;;;;;;0.90;0.90;;;;;;;8.77;100.00;101313.44;5039827;28;20455;-55
2022/10/03 05:26:42;;;;;;;1.13;0.67;;;;;;;8.90;100.00;101321.34;5042470;28;20949;-56
2022/10/03 05:29:34;;;;;;;1.53;0.90;;;;;;;8.94;100.00;101314.28;5042441;28;20451;-55
2022/10/03 05:32:16;;;;;;;1.43;1.00;;;;;;;8.85;100.00;101325.78;5028241;28;20459;-56
2022/10/03 05:35:07;;;;;;;0.60;0.60;;;;;;;8.92;100.00;101316.06;5032199;28;20999;-55
2022/10/03 05:37:54;;;;;;;1.43;1.43;;;;;;;9.02;100.00;101322.16;5035700;28;20482;-56
2022/10/03 05:40:24;;;;;;;1.43;1.00;;;;;;;9.18;100.00;101322.09;5035256;28;20452;-54
2022/10/03 05:43:01;;;;;;;1.10;1.00;;;;;;;9.13;100.00;101329.19;5041123;28;20903;-56
2022/10/03 05:45:37;;;;;;;1.03;1.00;;;;;;;9.23;100.00;101331.78;5033927;28;20474;-55
2022/10/03 05:48:23;;;;;;;10.57;1.73;;;;;;;9.28;100.00;101337.94;5039547;28;20533;-56
2022/10/03 05:51:14;;;;;;;1.90;1.80;;;;;;;9.32;100.00;101335.28;5023944;28;21060;-56
2022/10/03 05:54:18;;;;;;;2.47;1.53;;;;;;;9.39;100.00;101346.72;5044999;28;20536;-55
2022/10/03 05:57:22;;;;;;;0.80;0.80;;;;;;;9.39;100.00;101344.06;5029929;28;20501;-55
2022/10/03 06:00:08;;;;;;;2.17;1.20;;;;;;;9.31;100.00;101352.06;5037141;28;20454;-55
2022/10/03 06:03:00;;;;;;;1.63;0.97;;;;;;;9.48;100.00;101358.16;5028726;28;20972;-55
2022/10/03 06:05:56;;;;;;;2.73;1.73;;;;;;;9.59;100.00;101354.50;5021849;28;20471;-55
2022/10/03 06:08:50;;;;;;;1.27;1.17;;;;;;;9.61;100.00;101364.25;4988280;28;20873;-56
2022/10/03 06:11:44;;;;;;;64.43;2.37;;;;;;;9.61;100.00;101360.72;5036612;28;20533;-55
2022/10/03 06:14:28;;;;;;;2.00;1.47;;;;;;;9.59;100.00;101366.00;5039106;28;20475;-54
2022/10/03 06:17:23;;;;;;;3.03;1.20;;;;;;;9.66;100.00;101364.22;5031059;28;20481;-55
2022/10/03 06:19:56;;;;;;;1.17;1.00;;;;;;;9.97;100.00;101365.72;5034714;28;21031;-55
2022/10/03 06:22:59;;;;;;;1.27;1.13;;;;;;;9.97;100.00;101371.03;5040294;28;20460;-56
2022/10/03 06:25:49;;;;;;;2.20;2.10;;;;;;;10.11;100.00;101370.91;5039071;28;20562;-56
2022/10/03 06:28:43;;;;;;;2.17;2.07;;;;;;;10.15;100.00;101367.34;5023066;28;21024;-56
2022/10/03 06:31:13;;;;;;;1.50;1.40;;;;;;;10.12;100.00;101358.50;5040527;28;20540;-56
2022/10/03 06:34:01;;;;;;;1.77;1.60;;;;;;;10.13;100.00;101360.25;5039024;28;20529;-56
2022/10/03 06:36:55;;;;;;;1.90;1.23;;;;;;;10.15;100.00;101359.38;5029553;28;20513;-56
2022/10/03 06:39:55;;;;;;;1.70;1.60;;;;;;;10.24;100.00;101363.72;5041879;28;20462;-55
2022/10/03 06:42:44;;;;;;;1.70;1.60;;;;;;;10.23;100.00;101367.28;5043760;28;20964;-55
2022/10/03 06:45:29;;;;;;;2.80;2.60;;;;;;;10.25;100.00;101360.19;5039690;28;20978;-56
2022/10/03 06:48:14;;;;;;;2.43;2.20;;;;;;;10.44;100.00;101360.88;5033103;28;20494;-56
2022/10/03 06:51:12;;;;;;;2.77;2.50;;;;;;;10.19;100.00;101366.41;5044235;28;20487;-56
2022/10/03 06:54:18;;;;;;;2.60;2.13;;;;;;;10.44;100.00;101371.53;5036929;28;20898;-57
2022/10/03 06:57:03;;;;;;;8.03;3.57;;;;;;;10.53;100.00;101364.31;5037034;28;20456;-56
2022/10/03 07:00:09;;;;;;;3.20;2.33;;;;;;;10.28;100.00;101374.34;5037004;28;20467;-56
2022/10/03 07:02:38;;;;;;;3.63;3.33;;;;;;;10.57;100.00;101367.84;5031360;28;20498;-56
2022/10/03 07:05:40;;;;;;;3.60;2.73;;;;;;;10.78;100.00;101370.22;5044598;28;20913;-56
2022/10/03 07:08:27;;;;;;;2.30;2.20;;;;;;;10.91;100.00;101363.84;5033237;28;20549;-56
2022/10/03 07:11:02;;;;;;;1.97;1.87;;;;;;;11.00;100.00;101359.34;5038598;28;20484;-56
2022/10/03 07:13:35;;;;;;;10.93;3.43;;;;;;;11.08;100.00;101368.06;5007532;28;20942;-56
2022/10/03 07:16:26;;;;;;;2.90;2.70;;;;;;;11.15;100.00;101361.78;5037051;28;20521;-56
2022/10/03 07:19:27;;;;;;;1.93;1.80;;;;;;;11.36;100.00;101366.78;5045504;28;20461;-56
2022/10/03 07:22:35;;;;;;;6.20;4.67;;;;;;;11.52;100.00;101365.69;5030252;28;20448;-56
2022/10/03 07:25:36;;;;;;;4.87;3.77;;;;;;;11.62;100.00;101376.16;5036527;28;20540;-56
2022/10/03 07:28:05;;;;;;;2.43;2.13;;;;;;;11.70;100.00;101368.94;5047889;28;20459;-56
2022/10/03 07:30:50;;;;;;;3.20;3.00;;;;;;;11.64;100.00;101383.22;5019298;28;20578;-56
2022/10/03 07:34:04;;;;;;;1.87;1.77;;;;;;;11.61;100.00;101385.06;5040769;28;20517;-55
2022/10/03 07:40:07;;;;;;;3.60;1.80;;;;;;;11.54;100.00;101382.50;5029864;28;21013;-55
2022/10/03 07:42:51;;;;;;;1.53;1.43;;;;;;;11.56;100.00;101393.13;5035539;28;20459;-56
2022/10/03 07:45:29;;;;;;;2.00;1.90;;;;;;;11.58;100.00;101394.00;5041349;28;20483;-55
2022/10/03 07:48:14;;;;;;;2.13;1.93;;;;;;;11.82;100.00;101395.44;5050508;28;20450;-55
2022/10/03 07:50:58;;;;;;;13.80;1.53;;;;;;;12.00;100.00;101395.13;5020992;28;20514;-55
2022/10/03 07:53:46;;;;;;;1.80;1.70;;;;;;;11.96;100.00;101405.88;5042979;28;20558;-55
2022/10/03 07:56:34;;;;;;;3.00;2.30;;;;;;;11.88;100.00;101411.31;5041619;28;20598;-56
2022/10/03 07:59:19;;;;;;;4.70;3.53;;;;;;;12.45;100.00;101405.88;5021035;28;20740;-56
2022/10/03 08:02:23;;;;;;;4.40;3.40;;;;;;;12.43;100.00;101407.69;5043594;28;20969;-56
2022/10/03 08:05:16;;;;;;;2.60;1.83;;;;;;;12.29;100.00;101409.75;5036135;28;20498;-56
2022/10/03 08:07:51;;;;;;;3.53;3.13;;;;;;;12.62;100.00;101416.25;5036461;28;20451;-56
2022/10/03 08:10:44;;;;;;;6.30;3.30;;;;;;;12.50;100.00;101420.03;5024383;28;20454;-56
2022/10/03 08:13:25;;;;;;;7.93;2.20;;;;;;;12.74;100.00;101411.53;5036015;28;20451;-56
2022/10/03 08:16:20;;;;;;;1.87;1.60;;;;;;;12.70;100.00;101420.53;5036637;28;20455;-56
2022/10/03 08:18:55;;;;;;;2.33;2.23;;;;;;;12.58;100.00;101427.88;5003493;28;20448;-55
2022/10/03 08:21:46;;;;;;;2.90;2.70;;;;;;;12.40;100.00;101421.97;5043163;28;20512;-55
2022/10/03 08:24:31;;;;;;;10.37;2.30;;;;;;;12.61;100.00;101412.72;5042301;28;20808;-55
2022/10/03 08:27:12;;;;;;;2.20;1.90;;;;;;;12.93;100.00;101414.75;5032829;28;20456;-55
2022/10/03 08:30:03;;;;;;;1.27;1.00;;;;;;;12.55;100.00;101410.16;5043072;28;20435;-55
2022/10/03 08:32:33;;;;;;;1.93;1.83;;;;;;;12.67;100.00;101409.03;5032379;28;20490;-55
2022/10/03 08:35:23;;;;;;;1.80;1.70;;;;;;;12.79;100.00;101413.25;5019874;28;20527;-55
2022/10/03 08:38:06;;;;;;;1.73;1.63;;;;;;;12.95;100.00;101414.72;5018469;28;20481;-55
2022/10/03 08:40:55;;;;;;;2.83;2.50;;;;;;;12.65;100.00;101416.19;5035710;28;20962;-55
2022/10/03 08:43:43;;;;;;;5.63;2.00;;;;;;;12.87;100.00;101413.97;5034577;28;20894;-55
2022/10/03 08:46:27;;;;;;;1.53;1.43;;;;;;;13.28;100.00;101408.69;5027532;28;20879;-55
2022/10/03 08:49:27;;;;;;;2.70;2.00;;;;;;;13.30;100.00;101409.56;5035485;28;20486;-55
2022/10/03 08:52:20;;;;;;;2.67;2.47;;;;;;;13.32;100.00;101407.72;5035196;28;20486;-55
2022/10/03 08:55:05;;;;;;;4.80;1.57;;;;;;;13.63;100.00;101412.38;5029670;28;20589;-55
2022/10/03 08:57:53;;;;;;;2.90;2.20;;;;;;;13.33;100.00;101411.28;5021021;28;20576;-57
2022/10/03 09:00:34;;;;;;;7.43;2.70;;;;;;;13.33;100.00;101408.59;5035021;28;20521;-56
2022/10/03 09:03:31;;;;;;;3.10;2.23;;;;;;;13.54;100.00;101409.91;5044549;28;20852;-57
2022/10/03 09:06:23;;;;;;;3.53;3.20;;;;;;;13.51;100.00;101407.31;5041697;28;20833;-57
2022/10/03 09:09:07;;;;;;;1.80;1.70;;;;;;;13.78;100.00;101406.66;5026826;28;20961;-56
2022/10/03 09:11:37;;;;;;;1.80;1.70;;;;;;;13.96;100.00;101416.03;5030292;28;20538;-57
2022/10/03 09:14:28;;;;;;;1.83;1.70;;;;;;;13.70;100.00;101419.31;5037693;28;20490;-57
2022/10/03 09:17:08;;;;;;;2.37;2.00;;;;;;;14.12;100.00;101414.75;5027333;28;20524;-56
2022/10/03 09:19:58;;;;;;;1.93;1.83;;;;;;;14.23;100.00;101422.47;5020587;28;20916;-57
2022/10/03 09:23:01;;;;;;;1.87;1.77;;;;;;;14.19;100.00;101418.13;5042206;28;20443;-57
2022/10/03 09:25:30;;;;;;;3.83;2.50;;;;;;;14.33;100.00;101416.00;5040940;28;20471;-57
2022/10/03 09:28:09;;;;;;;2.67;2.57;;;;;;;14.27;100.00;101418.84;5029448;28;20482;-57
2022/10/03 09:30:54;;;;;;;2.70;2.50;;;;;;;13.99;100.00;101423.13;5041792;28;20450;-56
2022/10/03 09:33:54;;;;;;;9.13;1.73;;;;;;;14.28;100.00;101422.38;5029095;28;20450;-57
2022/10/03 09:36:35;;;;;;;4.53;2.17;;;;;;;14.45;100.00;101413.03;5029096;28;20455;-57
2022/10/03 09:39:26;;;;;;;5.63;1.70;;;;;;;14.50;100.00;101410.22;5016761;28;20485;-57
2022/10/03 09:41:58;;;;;;;16.67;2.10;;;;;;;14.61;100.00;101413.50;5035622;28;20447;-57
2022/10/03 09:44:55;;;;;;;1.73;1.63;;;;;;;14.75;100.00;101413.13;5041760;28;20467;-55
2022/10/03 09:47:58;;;;;;;2.20;2.10;;;;;;;14.49;100.00;101409.34;5037536;28;20447;-56
2022/10/03 09:50:54;;;;;;;1.63;1.43;;;;;;;14.45;100.00;101407.69;5034763;28;20451;-56
2022/10/03 09:53:38;;;;;;;11.93;1.63;;;;;;;14.66;100.00;101408.88;5045082;28;20467;-56
2022/10/03 09:56:11;;;;;;;4.63;2.73;;;;;;;15.03;100.00;101408.72;5042447;28;20504;-56
2022/10/03 09:58:38;;;;;;;2.83;2.60;;;;;;;14.75;100.00;101407.75;5019867;28;20532;-57
2022/10/03 10:01:27;;;;;;;2.27;2.17;;;;;;;15.06;100.00;101410.44;5042197;28;20451;-56
2022/10/03 10:04:30;;;;;;;4.47;2.13;;;;;;;15.03;100.00;101408.72;5033885;28;20474;-57
2022/10/03 10:07:43;;;;;;;10.03;2.60;;;;;;;14.99;100.00;101406.19;5037962;28;20474;-56
2022/10/03 10:10:43;;;;;;;5.23;2.50;;;;;;;15.30;100.00;101403.47;5032714;28;20451;-56
2022/10/03 10:13:15;;;;;;;1.50;1.17;;;;;;;15.16;100.00;101403.91;5037515;28;20426;-56
2022/10/03 10:16:00;;;;;;;1.67;1.10;;;;;;;15.44;100.00;101398.59;5032456;28;20873;-57
2022/10/03 10:18:58;;;;;;;14.33;2.40;;;;;;;15.53;100.00;101397.44;5029049;28;21018;-56
2022/10/03 10:21:50;;;;;;;3.57;2.20;;;;;;;15.33;100.00;101398.03;5037964;28;20446;-56
2022/10/03 10:24:20;;;;;;;9.50;1.00;;;;;;;15.22;100.00;101398.38;5043927;28;20529;-56
2022/10/03 10:26:56;;;;;;;7.03;1.23;;;;;;;15.19;100.00;101397.56;5040474;28;20451;-56
2022/10/03 10:29:25;;;;;;;7.23;2.77;;;;;;;15.17;100.00;101392.25;5038324;28;20507;-56
2022/10/03 10:32:10;;;;;;;9.10;2.57;;;;;;;15.42;100.00;101395.06;5041071;28;21000;-58
2022/10/03 10:34:56;;;;;;;1.73;1.63;;;;;;;15.35;100.00;101393.50;5044292;28;20471;-57
2022/10/03 10:37:25;;;;;;;4.70;2.37;;;;;;;15.77;100.00;101391.34;5044773;28;20450;-57
2022/10/03 10:40:23;;;;;;;0.90;0.90;;;;;;;15.77;96.94;101393.13;5040200;28;20944;-57
2022/10/03 10:43:08;;;;;;;4.53;1.63;;;;;;;15.88;96.52;101391.84;5025887;28;20520;-57
2022/10/03 10:45:49;;;;;;;3.53;1.77;;;;;;;16.13;97.81;101382.97;5025152;28;20981;-56
2022/10/03 10:49:07;;;;;;;3.43;2.13;;;;;;;16.19;97.34;101394.41;5028399;28;20455;-56
2022/10/03 10:52:01;;;;;;;7.60;2.17;;;;;;;16.00;96.95;101390.56;4983994;28;20850;-57
2022/10/03 10:55:03;;;;;;;20.30;1.97;;;;;;;16.24;97.12;101386.19;5031249;28;20491;-57
2022/10/03 10:58:04;;;;;;;7.07;1.13;;;;;;;16.45;91.79;101385.44;5022024;28;20458;-57
2022/10/03 11:01:00;;;;;;;12.20;1.90;;;;;;;16.21;93.94;101381.78;5019367;28;20565;-56
2022/10/03 11:03:45;;;;;;;5.17;1.83;;;;;;;16.33;91.01;101375.13;5037659;28;20433;-57
2022/10/03 11:06:56;;;;;;;11.93;1.50;;;;;;;16.29;91.95;101373.47;5036752;28;20448;-57
2022/10/03 11:09:45;;;;;;;3.33;1.47;;;;;;;16.57;92.15;101381.41;5044869;28;20437;-58
2022/10/03 11:12:42;;;;;;;10.73;1.80;;;;;;;16.62;87.18;101384.84;5040050;28;20854;-58
2022/10/03 11:15:51;;;;;;;1.63;1.53;;;;;;;16.68;90.92;101371.22;5020205;28;20487;-57
2022/10/03 11:18:54;;;;;;;1.27;1.17;;;;;;;15.98;82.91;101384.38;5008147;28;20516;-58
2022/10/03 11:21:59;;;;;;;5.33;1.40;;;;;;;16.07;83.97;101393.94;5042806;28;20927;-57
2022/10/03 11:24:49;;;;;;;2.07;1.57;;;;;;;16.11;84.23;101380.34;5036976;28;20513;-58
2022/10/03 11:27:52;;;;;;;2.47;1.80;;;;;;;16.52;86.16;101375.34;5041647;28;20541;-57
2022/10/03 11:30:37;;;;;;;2.50;1.17;;;;;;;16.18;86.46;101375.66;5038688;28;20459;-57
2022/10/03 11:33:41;;;;;;;1.30;1.20;;;;;;;15.99;86.65;101383.44;5031966;28;20492;-57
2022/10/03 11:36:28;;;;;;;6.20;1.93;;;;;;;15.88;87.54;101377.56;5046134;28;20433;-57
2022/10/03 11:39:10;;;;;;;1.70;1.07;;;;;;;15.75;86.03;101379.75;5035346;28;20511;-57
2022/10/03 11:41:49;;;;;;;2.07;1.40;;;;;;;15.97;88.77;101379.94;5028750;28;20497;-58
2022/10/03 11:44:21;;;;;;;3.10;1.43;;;;;;;16.00;90.59;101377.16;5033929;28;20474;-58
2022/10/03 11:47:04;;;;;;;1.60;1.20;;;;;;;16.16;88.09;101373.00;5041786;28;20442;-58
2022/10/03 11:50:08;;;;;;;4.10;1.00;;;;;;;16.03;89.57;101371.66;5032491;28;20957;-58
2022/10/03 11:52:54;;;;;;;1.00;0.90;;;;;;;16.04;87.26;101367.22;5038613;28;20962;-57
2022/10/03 11:55:44;;;;;;;4.97;1.60;;;;;;;16.02;86.77;101377.97;5032358;28;20563;-57
2022/10/03 11:58:33;;;;;;;5.20;1.13;;;;;;;16.19;87.22;101372.06;5033798;28;20459;-57
2022/10/03 12:01:27;;;;;;;6.10;1.60;;;;;;;16.26;86.71;101368.22;5037584;28;20470;-58
2022/10/03 12:04:10;;;;;;;1.17;1.07;;;;;;;16.57;85.68;101363.50;5025987;28;20475;-57
2022/10/03 12:09:47;;;;;;;1.70;1.00;;;;;;;16.55;84.19;101354.63;5039487;28;20531;-57
2022/10/03 12:12:34;;;;;;;9.87;1.43;;;;;;;16.23;81.77;101361.16;5006851;28;20499;-56
2022/10/03 12:15:28;;;;;;;3.60;1.23;;;;;;;16.24;81.76;101357.53;5022641;28;20479;-56
2022/10/03 12:18:24;;;;;;;2.60;1.67;;;;;;;16.37;80.00;101355.31;5034706;28;20418;-56
2022/10/03 12:21:15;;;;;;;3.20;2.23;;;;;;;16.44;79.35;101355.94;5035204;28;20425;-56
2022/10/03 12:23:58;;;;;;;17.03;1.97;;;;;;;16.30;82.23;101353.75;5031529;28;20833;-56
2022/10/03 12:26:53;;;;;;;0.90;0.90;;;;;;;16.26;82.54;101347.63;5020148;28;20459;-56
2022/10/03 12:29:23;;;;;;;3.30;2.33;;;;;;;16.32;83.32;101346.56;5044922;28;20504;-56
2022/10/03 12:32:08;;;;;;;1.37;1.27;;;;;;;16.20;81.03;101342.50;5036413;28;20495;-56
2022/10/03 12:34:38;;;;;;;6.13;1.97;;;;;;;16.25;81.98;101342.31;5028472;28;20536;-56
2022/10/03 12:37:22;;;;;;;4.27;1.10;;;;;;;16.51;81.44;101336.03;5034330;28;20871;-56
2022/10/03 12:40:05;;;;;;;2.03;1.43;;;;;;;16.54;83.68;101347.50;5036974;28;20455;-56
2022/10/03 12:42:40;;;;;;;6.13;1.53;;;;;;;16.29;84.00;101347.50;5030631;28;20460;-56
2022/10/03 12:45:19;;;;;;;2.70;1.20;;;;;;;16.23;84.21;101341.50;5030686;28;20458;-56
2022/10/03 12:48:22;;;;;;;2.73;0.97;;;;;;;16.33;85.06;101336.69;5037662;28;20548;-57
2022/10/03 12:51:19;;;;;;;2.07;1.37;;;;;;;16.20;84.60;101321.03;5040557;28;20813;-57
2022/10/03 12:54:14;;;;;;;3.90;1.30;;;;;;;16.18;85.48;101328.25;4987829;28;1157968;-57
2022/10/03 12:57:01;;;;;;;1.10;0.70;;;;;;;16.70;85.01;101328.19;5037557;28;20228;-57
2022/10/03 12:59:46;;;;;;;7.10;1.20;;;;;;;16.65;85.28;101312.22;5037227;28;20898;-57
2022/10/03 13:02:57;;;;;;;2.10;0.90;;;;;;;16.79;84.93;101315.31;5027096;28;20777;-57
2022/10/03 13:06:00;;;;;;;2.77;1.33;;;;;;;16.32;83.75;101317.03;4989807;28;20497;-58
2022/10/03 13:08:51;;;;;;;1.27;1.03;;;;;;;16.56;83.84;101318.81;5017992;28;20433;-57
2022/10/03 13:11:44;;;;;;;1.93;1.20;;;;;;;16.56;84.98;101309.88;5037415;28;20940;-58